createdAt,value
2023-02-02T00:02:46.959Z,99294.73000000001
2023-02-02T00:04:45.813Z,99294.73000000001
2023-02-02T00:08:48.889Z,99293.75
2023-02-02T00:09:45.738Z,99293.75
2023-02-02T00:14:45.930Z,99290.09
2023-02-02T00:14:46.478Z,99290.09
2023-02-02T00:19:45.762Z,99288.9
2023-02-02T00:24:46.497Z,99283.09000000001
2023-02-02T00:29:45.834Z,99273.86
2023-02-02T00:32:00.336Z,99272.29999999999
2023-02-02T00:34:45.720Z,99272.29999999999
2023-02-02T00:39:47.470Z,99268.52
2023-02-02T00:40:20.189Z,99268.52
2023-02-02T00:42:30.402Z,99270.53
2023-02-02T00:44:55.650Z,99270.53
2023-02-02T00:49:45.694Z,99274.77
2023-02-02T00:50:46.855Z,99282.2
2023-02-02T00:54:45.914Z,99282.2
2023-02-02T00:56:28.920Z,99277.45
2023-02-02T00:59:45.781Z,99277.45
2023-02-02T01:04:45.888Z,99276.79000000001
2023-02-02T01:08:04.190Z,99280.66
2023-02-02T01:09:45.650Z,99280.66
2023-02-02T01:14:45.977Z,99276.12000000001
2023-02-02T01:15:36.266Z,99276.12000000001
2023-02-02T01:18:59.785Z,99276.56
2023-02-02T01:19:45.839Z,99276.56
2023-02-02T01:24:45.802Z,99287.61
2023-02-02T01:29:46.159Z,99287.92
2023-02-02T01:33:06.419Z,99284.74
2023-02-02T01:34:45.642Z,99284.74
2023-02-02T01:36:49.418Z,99284.47
2023-02-02T01:39:45.665Z,99284.47
2023-02-02T01:40:28.653Z,99284.47
2023-02-02T01:44:54.152Z,99286.14
2023-02-02T01:45:12.133Z,99286.14
2023-02-02T01:49:47.009Z,99280.21
2023-02-02T01:52:58.819Z,99283.03
2023-02-02T01:54:47.895Z,99283.03
2023-02-02T01:59:47.158Z,99285.74
2023-02-02T02:04:47.700Z,99288.48000000001
2023-02-02T02:05:52.847Z,99288.55
2023-02-02T02:09:45.714Z,99288.55
2023-02-02T02:14:59.044Z,99292.76999999999
2023-02-02T02:15:17.449Z,99292.76999999999
2023-02-02T02:20:15.388Z,99289.65
2023-02-02T02:24:54.989Z,99287.92
2023-02-02T02:25:25.679Z,99287.92
2023-02-02T02:27:54.158Z,99283.42
2023-02-02T02:29:20.502Z,99283.42
2023-02-02T02:30:06.066Z,99283.42
2023-02-02T02:34:52.863Z,99282.59000000001
2023-02-02T02:35:02.536Z,99282.59000000001
2023-02-02T02:35:11.272Z,99282.59000000001
2023-02-02T02:37:33.686Z,99284.61
2023-02-02T02:39:53.547Z,99284.61
2023-02-02T02:44:47.385Z,99285.90000000001
2023-02-02T02:49:48.157Z,99284.81
2023-02-02T02:54:49.512Z,99288.65
2023-02-02T02:59:52.257Z,99289.69
2023-02-02T03:04:54.943Z,99287.58
2023-02-02T03:09:48.052Z,99287.59
2023-02-02T03:14:45.619Z,99297.58
2023-02-02T03:19:45.651Z,99295.43
2023-02-02T03:23:19.442Z,99295.81
2023-02-02T03:24:45.526Z,99295.81
2023-02-02T03:29:45.628Z,99282.76
2023-02-02T03:30:56.435Z,99284.01
2023-02-02T03:34:45.720Z,99284.01
2023-02-02T03:37:13.118Z,99286.37999999999
2023-02-02T03:39:10.432Z,99286.37999999999
2023-02-02T03:39:45.822Z,99286.37999999999
2023-02-02T03:44:45.515Z,99282.61
2023-02-02T03:48:40.502Z,99289.97
2023-02-02T03:49:45.513Z,99289.97
2023-02-02T03:54:45.601Z,99277.23
2023-02-02T03:56:22.270Z,99278.94
2023-02-02T03:59:45.988Z,99278.94
2023-02-02T04:04:45.541Z,99281.62
2023-02-02T04:05:00.181Z,99281.62
2023-02-02T04:09:45.524Z,99279.17
2023-02-02T04:11:26.527Z,99278.21
2023-02-02T04:13:10.517Z,99278.21
2023-02-02T04:14:45.516Z,99278.21
2023-02-02T04:16:52.443Z,99275.66
2023-02-02T04:19:45.577Z,99275.66
2023-02-02T04:19:57.372Z,99275.66
2023-02-02T04:24:45.909Z,99271.7
2023-02-02T04:27:36.148Z,99274.08
2023-02-02T04:29:45.712Z,99274.08
2023-02-02T04:34:45.668Z,99273.93
2023-02-02T04:39:00.473Z,99273.68000000001
2023-02-02T04:39:45.469Z,99273.68000000001
2023-02-02T04:44:45.559Z,99281.09
2023-02-02T04:49:45.966Z,99277.45
2023-02-02T04:54:45.679Z,99275.56
2023-02-02T04:59:45.798Z,99275.37
2023-02-02T05:04:46.459Z,99284.42
2023-02-02T05:09:45.944Z,99287.48000000001
2023-02-02T05:14:45.713Z,99292.38
2023-02-02T05:15:20.398Z,99292.38
2023-02-02T05:19:18.922Z,99291.49
2023-02-02T05:19:45.576Z,99291.49
2023-02-02T05:23:30.586Z,99289.29000000001
2023-02-02T05:24:45.832Z,99289.29000000001
2023-02-02T05:29:47.003Z,99291.47
2023-02-02T05:32:11.240Z,99289.86
2023-02-02T05:34:45.562Z,99289.86
2023-02-02T05:39:45.518Z,99281.7
2023-02-02T05:44:45.470Z,99291.25
2023-02-02T05:49:45.441Z,99287.0
2023-02-02T05:54:46.169Z,99290.07
2023-02-02T05:57:13.099Z,99293.25
2023-02-02T05:59:07.165Z,99293.25
2023-02-02T05:59:46.268Z,99293.25
2023-02-02T06:04:45.549Z,99292.3
2023-02-02T06:05:46.823Z,99292.11
2023-02-02T06:09:45.514Z,99292.11
2023-02-02T06:11:42.300Z,99288.03
2023-02-02T06:14:45.417Z,99288.03
2023-02-02T06:19:45.628Z,99295.89
2023-02-02T06:24:28.819Z,99287.11
2023-02-02T06:24:45.426Z,99287.11
2023-02-02T06:29:45.531Z,99288.83
2023-02-02T06:34:45.623Z,99290.16
2023-02-02T06:39:45.434Z,99293.26999999999
2023-02-02T06:44:45.465Z,99290.08
2023-02-02T06:49:45.731Z,99286.13
2023-02-02T06:54:45.390Z,99284.67000000001
2023-02-02T06:59:46.419Z,99285.55
2023-02-02T07:04:45.672Z,99282.9
2023-02-02T07:09:45.388Z,99281.67
2023-02-02T07:14:45.376Z,99276.81
2023-02-02T07:19:45.723Z,99280.58
2023-02-02T07:21:59.229Z,99276.68
2023-02-02T07:24:45.727Z,99276.68
2023-02-02T07:29:45.605Z,99273.25
2023-02-02T07:31:39.295Z,99286.49
2023-02-02T07:33:37.692Z,99286.49
2023-02-02T07:34:45.412Z,99286.49
2023-02-02T07:39:45.355Z,99282.42
2023-02-02T07:44:45.618Z,99283.56
2023-02-02T07:46:47.969Z,99289.85
2023-02-02T07:48:45.653Z,99289.85
2023-02-02T07:49:45.331Z,99289.85
2023-02-02T07:54:45.428Z,99288.54
2023-02-02T07:59:46.060Z,99287.18000000001
2023-02-02T08:04:46.647Z,99284.42
2023-02-02T08:09:46.947Z,99291.67
2023-02-02T08:14:45.859Z,99293.98
2023-02-02T08:15:36.226Z,99293.98
2023-02-02T08:19:15.159Z,99293.11
2023-02-02T08:19:45.364Z,99293.11
2023-02-02T08:22:40.504Z,99299.55
2023-02-02T08:24:45.419Z,99299.55
2023-02-02T08:29:45.572Z,99302.28
2023-02-02T08:34:47.785Z,99298.17
2023-02-02T08:39:45.308Z,99300.73
2023-02-02T08:45:59.938Z,99303.4
2023-02-02T08:49:45.358Z,99305.57
2023-02-02T08:51:08.995Z,99311.1
2023-02-02T08:54:45.428Z,99311.1
2023-02-02T08:56:03.099Z,99313.61
2023-02-02T08:56:42.136Z,99313.61
2023-02-02T08:59:45.257Z,99313.61
2023-02-02T09:00:18.553Z,99313.61
2023-02-02T09:04:46.145Z,99318.70999999999
2023-02-02T09:09:41.795Z,99316.76
2023-02-02T09:09:45.009Z,99316.76
2023-02-02T09:10:53.929Z,99320.94
2023-02-02T09:14:45.296Z,99320.94
2023-02-02T09:19:45.679Z,99318.98
2023-02-02T09:24:45.311Z,99320.56
2023-02-02T09:29:45.479Z,99326.17
2023-02-02T09:34:45.703Z,99332.98
2023-02-02T09:36:55.752Z,99340.71
2023-02-02T09:39:45.216Z,99340.71
2023-02-02T09:39:55.168Z,99340.71
2023-02-02T09:44:13.414Z,99344.06
2023-02-02T09:44:58.799Z,99344.06
2023-02-02T09:49:54.123Z,99352.98
2023-02-02T09:54:47.401Z,99359.07999999999
2023-02-02T09:56:34.694Z,99366.78
2023-02-02T09:59:49.022Z,99366.78
2023-02-02T10:02:48.982Z,99375.89
2023-02-02T10:04:48.324Z,99375.89
2023-02-02T10:08:34.631Z,99381.3
2023-02-02T10:09:50.148Z,99381.3
2023-02-02T10:10:37.873Z,99381.3
2023-02-02T10:13:42.773Z,99387.91
2023-02-02T10:14:51.562Z,99387.91
2023-02-02T10:19:45.822Z,99394.22
2023-02-02T10:19:47.825Z,99394.22
2023-02-02T10:24:46.075Z,99401.84000000001
2023-02-02T10:29:54.833Z,99406.65000000001
2023-02-02T10:35:12.515Z,99407.53
2023-02-02T10:37:42.994Z,99412.77
2023-02-02T10:39:58.391Z,99412.77
2023-02-02T10:44:51.510Z,99416.52
2023-02-02T10:47:22.291Z,99424.78
2023-02-02T10:49:45.916Z,99424.78
2023-02-02T10:54:57.298Z,99433.53
2023-02-02T10:56:51.319Z,99441.76999999999
2023-02-02T10:59:58.543Z,99441.76999999999
2023-02-02T11:01:16.901Z,99452.87
2023-02-02T11:04:55.082Z,99452.87
2023-02-02T11:09:45.578Z,99465.25
2023-02-02T11:10:57.366Z,99469.98
2023-02-02T11:14:50.349Z,99469.98
2023-02-02T11:19:45.313Z,99477.09999999999
2023-02-02T11:22:37.567Z,99488.9
2023-02-02T11:24:05.963Z,99488.9
2023-02-02T11:24:48.544Z,99488.9
2023-02-02T11:29:48.561Z,99494.61
2023-02-02T11:34:46.205Z,99491.85
2023-02-02T11:35:13.618Z,99491.85
2023-02-02T11:39:45.154Z,99496.39
2023-02-02T11:44:49.118Z,99503.97
2023-02-02T11:49:45.674Z,99505.4
2023-02-02T11:54:48.436Z,99508.09000000001
2023-02-02T11:58:14.960Z,99512.7
2023-02-02T11:59:46.609Z,99512.7
2023-02-02T12:04:46.698Z,99522.79999999999
2023-02-02T12:09:12.572Z,99531.08
2023-02-02T12:09:45.430Z,99531.08
2023-02-02T12:14:57.133Z,99537.78
2023-02-02T12:16:52.369Z,99542.72
2023-02-02T12:20:01.472Z,99542.72
2023-02-02T12:24:54.423Z,99552.20000000001
2023-02-02T12:28:35.203Z,99558.08
2023-02-02T12:29:59.683Z,99558.08
2023-02-02T12:30:21.311Z,99558.08
2023-02-02T12:34:54.019Z,99561.5
2023-02-02T12:37:16.905Z,99572.75
2023-02-02T12:40:02.279Z,99572.75
2023-02-02T12:44:57.740Z,99573.25
2023-02-02T12:50:00.108Z,99597.47
2023-02-02T12:54:33.795Z,99604.90999999999
2023-02-02T12:55:02.497Z,99604.90999999999
2023-02-02T12:56:51.040Z,99621.73
2023-02-02T13:00:01.822Z,99621.73
2023-02-02T13:03:04.333Z,99633.70999999999
2023-02-02T13:05:00.190Z,99633.70999999999
2023-02-02T13:07:25.913Z,99647.31
2023-02-02T13:09:51.001Z,99647.31
2023-02-02T13:11:41.014Z,99659.38
2023-02-02T13:13:31.777Z,99659.38
2023-02-02T13:14:50.401Z,99659.38
2023-02-02T13:19:52.326Z,99673.53
2023-02-02T13:24:37.756Z,99689.06
2023-02-02T13:24:48.595Z,99689.06
2023-02-02T13:27:26.057Z,99699.44
2023-02-02T13:29:51.674Z,99699.44
2023-02-02T13:34:49.867Z,99709.28
2023-02-02T13:39:52.547Z,99713.53
2023-02-02T13:42:33.150Z,99732.08
2023-02-02T13:44:50.389Z,99732.08
2023-02-02T13:48:25.876Z,99743.76999999999
2023-02-02T13:49:37.250Z,99743.76999999999
2023-02-02T13:49:50.479Z,99743.76999999999
2023-02-02T13:54:10.832Z,99755.74
2023-02-02T13:55:02.285Z,99755.74
2023-02-02T13:59:52.105Z,99763.92
2023-02-02T14:04:53.558Z,99772.38
2023-02-02T14:06:04.225Z,99774.72
2023-02-02T14:09:47.639Z,99774.72
2023-02-02T14:14:46.033Z,99785.61
2023-02-02T14:19:49.938Z,99798.03
2023-02-02T14:24:49.075Z,99804.39
2023-02-02T14:27:56.472Z,99816.99
2023-02-02T14:29:58.963Z,99816.99
2023-02-02T14:34:48.336Z,99823.81
2023-02-02T14:35:23.768Z,99823.81
2023-02-02T14:39:53.788Z,99838.87
2023-02-02T14:40:03.144Z,99838.87
2023-02-02T14:45:07.022Z,99843.7
2023-02-02T14:46:48.219Z,99857.84999999999
2023-02-02T14:49:46.026Z,99857.84999999999
2023-02-02T14:50:51.803Z,99867.44
2023-02-02T14:51:51.491Z,99867.44
2023-02-02T14:54:48.154Z,99867.44
2023-02-02T14:56:12.447Z,99883.76
2023-02-02T14:57:33.235Z,99883.76
2023-02-02T14:59:55.543Z,99883.76
2023-02-02T15:02:39.132Z,99888.56
2023-02-02T15:04:46.846Z,99888.56
2023-02-02T15:09:45.171Z,99903.97
2023-02-02T15:14:22.397Z,99919.86
2023-02-02T15:14:50.563Z,99919.86
2023-02-02T15:19:51.130Z,99936.21
2023-02-02T15:22:22.509Z,99958.81000000001
2023-02-02T15:24:45.726Z,99958.81000000001
2023-02-02T15:29:48.521Z,99974.56
2023-02-02T15:34:29.116Z,99995.89
2023-02-02T15:34:49.108Z,99995.89
2023-02-02T15:36:50.663Z,99999.3
2023-02-02T15:39:47.990Z,99999.3
2023-02-02T15:44:45.212Z,100013.21
2023-02-02T15:48:25.698Z,100025.72
2023-02-02T15:49:45.318Z,100025.72
2023-02-02T15:52:34.644Z,100036.97
2023-02-02T15:54:51.850Z,100036.97
2023-02-02T15:59:45.245Z,100059.79999999999
2023-02-02T16:04:03.344Z,100074.39
2023-02-02T16:04:45.091Z,100074.39
2023-02-02T16:09:45.351Z,100103.52
2023-02-02T16:12:17.234Z,100114.48000000001
2023-02-02T16:14:46.624Z,100114.48000000001
2023-02-02T16:19:45.696Z,100134.23
2023-02-02T16:21:22.590Z,100139.11
2023-02-02T16:24:48.917Z,100139.11
2023-02-02T16:29:45.428Z,100147.20999999999
2023-02-02T16:30:08.926Z,100147.20999999999
2023-02-02T16:34:46.609Z,100157.17
2023-02-02T16:39:45.627Z,100166.89
2023-02-02T16:44:37.997Z,100181.16
2023-02-02T16:44:44.826Z,100181.16
2023-02-02T16:49:45.132Z,100194.0
2023-02-02T16:54:50.844Z,100197.97
2023-02-02T16:59:53.370Z,100207.32
2023-02-02T17:05:22.291Z,100221.79
2023-02-02T17:09:47.257Z,100236.14
2023-02-02T17:14:51.308Z,100242.64
2023-02-02T17:18:56.937Z,100248.17
2023-02-02T17:19:46.783Z,100248.17
2023-02-02T17:24:47.441Z,100256.6
2023-02-02T17:25:51.862Z,100271.55
2023-02-02T17:28:00.581Z,100271.55
2023-02-02T17:29:45.545Z,100271.55
2023-02-02T17:29:54.417Z,100271.55
2023-02-02T17:30:59.366Z,100287.69
2023-02-02T17:34:45.549Z,100287.69
2023-02-02T17:34:46.024Z,100287.69
2023-02-02T17:39:45.080Z,100293.75
2023-02-02T17:44:46.025Z,100308.89
2023-02-02T17:49:44.886Z,100313.9
2023-02-02T17:50:08.934Z,100313.9
2023-02-02T17:54:34.431Z,100324.76000000001
2023-02-02T17:54:44.755Z,100324.76000000001
2023-02-02T17:59:45.048Z,100335.41
2023-02-02T18:04:45.759Z,100343.7
2023-02-02T18:05:56.708Z,100356.84
2023-02-02T18:09:44.873Z,100356.84
2023-02-02T18:12:02.008Z,100363.26000000001
2023-02-02T18:13:20.512Z,100363.26000000001
2023-02-02T18:14:44.816Z,100363.26000000001
2023-02-02T18:19:46.417Z,100372.02
2023-02-02T18:24:44.958Z,100391.38
2023-02-02T18:29:45.350Z,100399.7
2023-02-02T18:31:42.490Z,100403.34
2023-02-02T18:34:46.672Z,100403.34
2023-02-02T18:39:45.075Z,100416.21
2023-02-02T18:44:44.796Z,100425.47
2023-02-02T18:49:45.602Z,100431.53
2023-02-02T18:54:47.474Z,100431.39
2023-02-02T18:59:44.845Z,100436.83
2023-02-02T19:02:54.516Z,100445.54000000001
2023-02-02T19:04:55.419Z,100445.54000000001
2023-02-02T19:09:45.085Z,100469.8
2023-02-02T19:14:44.837Z,100471.11
2023-02-02T19:16:25.271Z,100492.13
2023-02-02T19:19:44.878Z,100492.13
2023-02-02T19:24:45.558Z,100502.08
2023-02-02T19:28:52.345Z,100520.87
2023-02-02T19:29:46.229Z,100520.87
2023-02-02T19:31:30.609Z,100529.16
2023-02-02T19:34:12.062Z,100529.16
2023-02-02T19:34:45.710Z,100529.16
2023-02-02T19:38:54.013Z,100539.59
2023-02-02T19:39:46.222Z,100539.59
2023-02-02T19:42:55.276Z,100541.02
2023-02-02T19:44:44.810Z,100541.02
2023-02-02T19:49:44.993Z,100558.39
2023-02-02T19:50:53.383Z,100569.33
2023-02-02T19:54:47.869Z,100569.33
2023-02-02T19:59:47.494Z,100577.79000000001
2023-02-02T20:00:32.596Z,100577.79000000001
2023-02-02T20:04:44.745Z,100596.94
2023-02-02T20:09:44.749Z,100608.11
2023-02-02T20:14:35.879Z,100615.28
2023-02-02T20:14:46.690Z,100615.28
2023-02-02T20:19:45.166Z,100633.09000000001
2023-02-02T20:24:47.820Z,100643.7
2023-02-02T20:29:18.020Z,100646.59
2023-02-02T20:29:46.996Z,100646.59
2023-02-02T20:34:44.782Z,100660.51999999999
2023-02-02T20:39:48.939Z,100664.18
2023-02-02T20:44:44.820Z,100677.29000000001
2023-02-02T20:47:10.531Z,100683.56
2023-02-02T20:49:45.370Z,100683.56
2023-02-02T20:54:44.963Z,100693.97
2023-02-02T20:58:54.420Z,100703.72
2023-02-02T20:59:44.862Z,100703.72
2023-02-02T20:59:56.457Z,100703.72
2023-02-02T21:04:46.358Z,100709.77
2023-02-02T21:09:46.540Z,100721.41
2023-02-02T21:14:44.768Z,100723.51999999999
2023-02-02T21:19:45.064Z,100732.67
2023-02-02T21:20:20.936Z,100732.67
2023-02-02T21:24:39.404Z,100739.29000000001
2023-02-02T21:24:44.623Z,100739.29000000001
2023-02-02T21:29:44.743Z,100748.39
2023-02-02T21:34:44.992Z,100753.29000000001
2023-02-02T21:36:34.970Z,100767.24
2023-02-02T21:38:14.225Z,100767.24
2023-02-02T21:39:47.456Z,100767.24
2023-02-02T21:44:26.270Z,100773.77
2023-02-02T21:44:50.513Z,100773.77
2023-02-02T21:45:56.137Z,100785.47
2023-02-02T21:49:44.763Z,100785.47
2023-02-02T21:54:46.265Z,100792.19
2023-02-02T21:58:50.914Z,100797.64
2023-02-02T21:59:45.773Z,100797.64
2023-02-02T22:04:19.428Z,100797.66
2023-02-02T22:04:44.669Z,100797.66
2023-02-02T22:05:26.335Z,100797.66
2023-02-02T22:08:34.658Z,100815.28
2023-02-02T22:09:47.549Z,100815.28
2023-02-02T22:12:21.614Z,100816.28
2023-02-02T22:14:46.148Z,100816.28
2023-02-02T22:19:44.846Z,100820.25
2023-02-02T22:24:50.235Z,100824.57
2023-02-02T22:26:43.303Z,100836.36
2023-02-02T22:29:44.819Z,100836.36
2023-02-02T22:34:44.838Z,100839.33
2023-02-02T22:38:33.342Z,100844.05
2023-02-02T22:39:44.714Z,100844.05
2023-02-02T22:44:44.832Z,100848.72
2023-02-02T22:49:44.934Z,100850.69
2023-02-02T22:54:44.579Z,100861.41
2023-02-02T22:59:44.686Z,100872.39
2023-02-02T23:04:44.939Z,100880.06
2023-02-02T23:07:52.595Z,100889.89
2023-02-02T23:09:44.568Z,100889.89
2023-02-02T23:13:54.145Z,100893.05
2023-02-02T23:14:44.612Z,100893.05
2023-02-02T23:19:31.580Z,100907.6
2023-02-02T23:19:44.672Z,100907.6
2023-02-02T23:24:44.754Z,100911.47
2023-02-02T23:29:45.073Z,100915.98
2023-02-02T23:34:44.631Z,100927.31
2023-02-02T23:39:44.634Z,100915.97
2023-02-02T23:40:25.068Z,100915.97
2023-02-02T23:44:44.585Z,100931.53
2023-02-02T23:48:40.126Z,100926.51
2023-02-02T23:49:44.856Z,100926.51
2023-02-02T23:54:44.919Z,100942.7
2023-02-02T23:59:44.522Z,100947.77
